Conger, Minnesota
Current Conditions -  °F | °C
As of 1:34 AM on Wednesday 22 Oct 2014 (Local Time) from KAEL Reporting Station
Clear Clear  
Wind Chill: 39°   Ceiling: Unl
Heat Index: 45°   Visibility: 10mi
Dew Point: 37°   Wind: 12mph
Humidity: 76%   Direction: 150°SSE
Pressure: 30.18"   Gusts: 20mph
Location:  43.61°N, 93.53°W
Report Text: KAEL 220634Z AUTO 15010G17KT 10SM CLR 07/03 A3018 RMK AO2
Loading
Personal Weather Stations






























Interactive Weather Map
Tropical Storm Tracking
New forecast layout! Learn more

10-Day Weather Forecast

Advertisements
Track Severe Weather on mobile